Epworth, Illinois
Current Conditions -  °F | °C
As of 2:55 AM on Saturday 22 Nov 2014 (Local Time) from KCUL Reporting Station
Overcast Overcast  
Wind Chill: 37°   Ceiling: 6500
Heat Index: 42°   Visibility: 10mi
Dew Point: 35°   Wind: 7mph
Humidity: 76%   Direction: 160°SSE
Pressure: 30.25"   Gusts: NA
Location:  38.0491°N, 88.1124°W
Report Text: KCUL 220855Z AUTO 16006KT 10SM OVC065 06/02 A3025 RMK AO2 T00550015
Loading
Personal Weather Stations






























Interactive Weather Map New forecast layout! Learn more

10-Day Weather Forecast

Advertisements
Track Severe Weather on mobile